createdAt,value
2023-03-29T00:00:42.825Z,0.00
2023-03-29T00:01:44.006Z,0.00
2023-03-29T00:02:43.970Z,0.00
2023-03-29T00:03:43.429Z,0.00
2023-03-29T00:04:43.659Z,0.00
2023-03-29T00:05:44.965Z,0.00
2023-03-29T00:06:44.009Z,0.00
2023-03-29T00:07:45.911Z,0.00
2023-03-29T00:08:44.915Z,0.00
2023-03-29T00:09:44.436Z,0.00
2023-03-29T00:10:44.964Z,0.00
2023-03-29T00:11:44.721Z,0.00
2023-03-29T00:12:44.877Z,0.00
2023-03-29T00:13:45.095Z,0.00
2023-03-29T00:14:45.956Z,0.00
2023-03-29T00:15:46.409Z,0.00
2023-03-29T00:16:45.707Z,0.00
2023-03-29T00:17:46.797Z,0.00
2023-03-29T00:18:47.413Z,0.00
2023-03-29T00:19:46.290Z,0.00
2023-03-29T00:20:46.493Z,0.00
2023-03-29T00:21:46.665Z,0.00
2023-03-29T00:22:46.864Z,0.00
2023-03-29T00:23:49.437Z,0.00
2023-03-29T00:24:47.173Z,0.00
2023-03-29T00:25:47.324Z,0.00
2023-03-29T00:26:47.476Z,0.00
2023-03-29T00:27:47.684Z,0.00
2023-03-29T00:28:49.914Z,0.00
2023-03-29T00:29:48.917Z,0.00
2023-03-29T00:30:48.190Z,0.00
2023-03-29T00:31:48.940Z,0.00
2023-03-29T00:32:48.559Z,0.00
2023-03-29T00:33:49.464Z,0.00
2023-03-29T00:34:49.459Z,0.00
2023-03-29T00:35:50.013Z,0.00
2023-03-29T00:36:49.162Z,0.00
2023-03-29T00:37:49.357Z,0.00
2023-03-29T00:38:50.925Z,0.00
2023-03-29T00:39:50.422Z,0.00
2023-03-29T00:40:50.460Z,0.00
2023-03-29T00:41:49.971Z,0.00
2023-03-29T00:42:50.159Z,0.00
2023-03-29T00:43:50.322Z,0.00
2023-03-29T00:44:50.488Z,0.00
2023-03-29T00:45:50.624Z,0.00
2023-03-29T00:46:51.533Z,0.00
2023-03-29T00:47:51.019Z,0.00
2023-03-29T00:48:51.157Z,0.00
2023-03-29T00:49:51.921Z,0.00
2023-03-29T00:50:51.546Z,0.00
2023-03-29T00:51:51.719Z,0.00
2023-03-29T00:52:51.933Z,0.00
2023-03-29T00:53:52.129Z,0.00
2023-03-29T00:54:52.497Z,0.00
2023-03-29T00:55:52.475Z,0.00
2023-03-29T00:56:53.509Z,0.00
2023-03-29T00:57:53.456Z,0.00
2023-03-29T00:58:54.941Z,0.00
2023-03-29T00:59:53.242Z,0.00
2023-03-29T01:00:53.423Z,0.00
2023-03-29T01:01:53.637Z,0.00
2023-03-29T01:02:53.903Z,0.00
2023-03-29T01:03:54.076Z,0.00
2023-03-29T01:04:54.145Z,0.00
2023-03-29T01:05:54.372Z,0.00
2023-03-29T01:06:56.480Z,0.00
2023-03-29T01:07:54.718Z,0.00
2023-03-29T01:08:54.896Z,0.00
2023-03-29T01:09:55.101Z,0.00
2023-03-29T01:10:55.324Z,0.00
2023-03-29T01:11:55.554Z,0.00
2023-03-29T01:12:57.441Z,0.00
2023-03-29T01:13:55.957Z,0.00
2023-03-29T01:14:56.222Z,0.00
2023-03-29T01:15:56.995Z,0.00
2023-03-29T01:16:56.972Z,0.00
2023-03-29T01:17:56.736Z,0.00
2023-03-29T01:18:57.464Z,0.00
2023-03-29T01:19:56.916Z,0.00
2023-03-29T01:20:58.968Z,0.00
2023-03-29T01:21:57.932Z,0.00
2023-03-29T01:22:57.492Z,0.00
2023-03-29T01:23:58.947Z,0.00
2023-03-29T01:24:58.936Z,0.00
2023-03-29T01:25:57.960Z,0.00
2023-03-29T01:26:58.119Z,0.00
2023-03-29T01:27:58.304Z,0.00
2023-03-29T01:28:59.938Z,0.00
2023-03-29T01:29:58.755Z,0.00
2023-03-29T01:30:59.042Z,0.00
2023-03-29T01:31:59.133Z,0.00
2023-03-29T01:33:00.012Z,0.00
2023-03-29T01:33:59.970Z,0.00
2023-03-29T01:35:00.441Z,0.00
2023-03-29T01:35:59.861Z,0.00
2023-03-29T01:37:00.064Z,0.00
2023-03-29T01:38:01.934Z,0.00
2023-03-29T01:39:00.423Z,0.00
2023-03-29T01:40:00.610Z,0.00
2023-03-29T01:41:00.975Z,0.00
2023-03-29T01:42:01.006Z,0.00
2023-03-29T01:43:01.937Z,0.00
2023-03-29T01:44:01.480Z,0.00
2023-03-29T01:45:02.588Z,0.00
2023-03-29T01:46:01.928Z,0.00
2023-03-29T01:47:01.999Z,0.00
2023-03-29T01:48:02.302Z,0.00
2023-03-29T01:49:02.938Z,0.00
2023-03-29T01:50:02.496Z,0.00
2023-03-29T01:51:02.964Z,0.00
2023-03-29T01:52:02.905Z,0.00
2023-03-29T01:53:03.123Z,0.00
2023-03-29T01:54:03.283Z,0.00
2023-03-29T01:55:03.452Z,0.00
2023-03-29T01:56:03.617Z,0.00
2023-03-29T01:57:04.066Z,0.00
2023-03-29T01:58:04.470Z,0.00
2023-03-29T01:59:04.168Z,0.00
2023-03-29T02:00:04.225Z,0.00
2023-03-29T02:01:04.667Z,0.00
2023-03-29T02:02:04.648Z,0.00
2023-03-29T02:03:04.935Z,0.00
2023-03-29T02:04:05.058Z,0.00
2023-03-29T02:05:05.234Z,0.00
2023-03-29T02:06:05.939Z,0.00
2023-03-29T02:07:06.303Z,0.00
2023-03-29T02:08:05.713Z,0.00
2023-03-29T02:09:05.908Z,0.00
2023-03-29T02:10:06.985Z,0.00
2023-03-29T02:11:06.508Z,0.00
2023-03-29T02:12:06.454Z,0.00
2023-03-29T02:13:07.480Z,0.00
2023-03-29T02:14:06.785Z,0.00
2023-03-29T02:15:06.907Z,0.00
2023-03-29T02:16:08.109Z,0.00
2023-03-29T02:17:07.316Z,0.00
2023-03-29T02:18:07.515Z,0.00
2023-03-29T02:19:07.655Z,0.00
2023-03-29T02:20:07.802Z,0.00
2023-03-29T02:21:08.482Z,0.00
2023-03-29T02:22:08.945Z,0.00
2023-03-29T02:23:08.366Z,0.00
2023-03-29T02:24:08.519Z,0.00
2023-03-29T02:25:08.663Z,0.00
2023-03-29T02:26:08.877Z,0.00
2023-03-29T02:27:09.488Z,0.00
2023-03-29T02:28:09.882Z,0.00
2023-03-29T02:29:10.434Z,0.00
2023-03-29T02:30:09.686Z,0.00
2023-03-29T02:31:10.799Z,0.00
2023-03-29T02:32:10.013Z,0.00
2023-03-29T02:33:10.254Z,0.00
2023-03-29T02:34:10.519Z,0.00
2023-03-29T02:35:11.483Z,0.00
2023-03-29T02:36:10.774Z,0.00
2023-03-29T02:37:10.969Z,0.00
2023-03-29T02:38:11.153Z,0.00
2023-03-29T02:39:11.341Z,0.00
2023-03-29T02:40:11.985Z,0.00
2023-03-29T02:41:11.737Z,0.00
2023-03-29T02:42:11.890Z,0.00
2023-03-29T02:43:12.107Z,0.00
2023-03-29T02:44:12.322Z,0.00
2023-03-29T02:45:13.486Z,0.00
2023-03-29T02:46:13.535Z,0.00
2023-03-29T02:47:12.828Z,0.00
2023-03-29T02:48:13.493Z,0.00
2023-03-29T02:49:13.169Z,0.00
2023-03-29T02:50:13.987Z,0.00
2023-03-29T02:51:14.002Z,0.00
2023-03-29T02:52:13.664Z,0.00
2023-03-29T02:53:14.491Z,0.00
2023-03-29T02:54:14.020Z,0.00
2023-03-29T02:55:14.816Z,0.00
2023-03-29T02:56:14.370Z,0.00
2023-03-29T02:57:14.591Z,0.00
2023-03-29T02:58:14.781Z,0.00
2023-03-29T02:59:14.976Z,0.00
2023-03-29T03:00:15.951Z,0.00
2023-03-29T03:01:15.384Z,0.00
2023-03-29T03:02:16.062Z,0.00
2023-03-29T03:03:15.850Z,0.00
2023-03-29T03:04:17.452Z,0.00
2023-03-29T03:05:16.995Z,0.00
2023-03-29T03:06:17.009Z,0.00
2023-03-29T03:07:17.949Z,0.00
2023-03-29T03:08:16.740Z,0.00
2023-03-29T03:09:16.905Z,0.00
2023-03-29T03:10:18.953Z,0.00
2023-03-29T03:11:17.341Z,0.00
2023-03-29T03:12:18.454Z,0.00
2023-03-29T03:13:18.497Z,0.00
2023-03-29T03:14:17.913Z,0.00
2023-03-29T03:15:18.112Z,0.00
2023-03-29T03:16:18.329Z,0.00
2023-03-29T03:17:18.428Z,0.00
2023-03-29T03:18:18.637Z,0.00
2023-03-29T03:19:18.805Z,0.00
2023-03-29T03:20:18.973Z,0.00
2023-03-29T03:21:19.215Z,0.00
2023-03-29T03:22:19.385Z,0.00
2023-03-29T03:23:19.546Z,0.00
2023-03-29T03:24:19.722Z,0.00
2023-03-29T03:25:19.913Z,0.00
2023-03-29T03:26:20.120Z,0.00
2023-03-29T03:27:20.304Z,0.00
2023-03-29T03:28:20.482Z,0.00
2023-03-29T03:29:21.446Z,0.00
2023-03-29T03:30:20.919Z,0.00
2023-03-29T03:31:21.070Z,0.00
2023-03-29T03:32:21.279Z,0.00
2023-03-29T03:33:21.439Z,0.00
2023-03-29T03:34:21.613Z,0.00
2023-03-29T03:35:22.031Z,0.00
2023-03-29T03:36:21.953Z,0.00
2023-03-29T03:37:22.117Z,0.00
2023-03-29T03:38:22.989Z,0.00
2023-03-29T03:39:23.868Z,0.00
2023-03-29T03:40:22.774Z,0.00
2023-03-29T03:41:23.504Z,0.00
2023-03-29T03:42:23.156Z,0.00
2023-03-29T03:43:23.304Z,0.00
2023-03-29T03:44:23.448Z,0.00
2023-03-29T03:45:24.011Z,0.00
2023-03-29T03:46:23.772Z,0.00
2023-03-29T03:47:24.978Z,0.00
2023-03-29T03:48:24.111Z,0.00
2023-03-29T03:49:24.988Z,0.00
2023-03-29T03:50:24.957Z,0.00
2023-03-29T03:51:24.601Z,0.00
2023-03-29T03:52:24.769Z,0.00
2023-03-29T03:53:24.919Z,0.00
2023-03-29T03:54:25.076Z,0.00
2023-03-29T03:55:25.504Z,0.00
2023-03-29T03:56:25.406Z,0.00
2023-03-29T03:57:25.608Z,0.00
2023-03-29T03:58:25.765Z,0.00
2023-03-29T03:59:25.941Z,0.00
2023-03-29T04:00:26.098Z,0.00
2023-03-29T04:01:26.262Z,0.00
2023-03-29T04:02:27.055Z,0.00
2023-03-29T04:03:26.766Z,0.00
2023-03-29T04:04:26.977Z,0.00
2023-03-29T04:05:27.011Z,0.00
2023-03-29T04:06:27.167Z,0.00
2023-03-29T04:07:27.356Z,0.00
2023-03-29T04:08:27.522Z,0.00
2023-03-29T04:09:28.515Z,0.00
2023-03-29T04:10:27.798Z,0.00
2023-03-29T04:11:29.454Z,0.00
2023-03-29T04:12:28.205Z,0.00
2023-03-29T04:13:29.005Z,0.00
2023-03-29T04:14:28.551Z,0.00
2023-03-29T04:15:28.799Z,0.00
2023-03-29T04:16:29.558Z,0.00
2023-03-29T04:17:29.971Z,0.00
2023-03-29T04:18:30.039Z,0.00
2023-03-29T04:19:29.952Z,0.00
2023-03-29T04:20:30.455Z,0.00
2023-03-29T04:21:29.817Z,0.00
2023-03-29T04:22:30.954Z,0.00
2023-03-29T04:23:30.198Z,0.00
2023-03-29T04:24:30.363Z,0.00
2023-03-29T04:25:30.555Z,0.00
2023-03-29T04:26:30.732Z,0.00
2023-03-29T04:27:30.876Z,0.00
2023-03-29T04:28:32.001Z,0.00
2023-03-29T04:29:31.148Z,0.00
2023-03-29T04:30:31.337Z,0.00
2023-03-29T04:31:31.569Z,0.00
2023-03-29T04:32:31.663Z,0.00
2023-03-29T04:33:32.968Z,0.00
2023-03-29T04:34:31.950Z,0.00
2023-03-29T04:35:32.125Z,0.00
2023-03-29T04:36:32.316Z,0.00
2023-03-29T04:37:32.650Z,0.00
2023-03-29T04:38:34.474Z,0.00
2023-03-29T04:39:33.474Z,0.00
2023-03-29T04:40:33.003Z,0.00
2023-03-29T04:41:33.163Z,0.00
2023-03-29T04:42:33.541Z,0.00
2023-03-29T04:43:34.510Z,4.00
2023-03-29T04:44:34.105Z,4.00
2023-03-29T04:45:34.510Z,0.00
2023-03-29T04:46:35.136Z,4.00
2023-03-29T04:47:34.472Z,4.00
2023-03-29T04:48:34.558Z,4.00
2023-03-29T04:49:35.476Z,0.00
2023-03-29T04:50:34.877Z,4.00
2023-03-29T04:51:35.521Z,4.00
2023-03-29T04:52:35.197Z,4.00
2023-03-29T04:53:35.390Z,4.00
2023-03-29T04:54:36.482Z,8.00
2023-03-29T04:55:35.810Z,8.00
2023-03-29T04:56:36.976Z,8.00
2023-03-29T04:57:36.239Z,8.00
2023-03-29T04:58:36.975Z,12.00
2023-03-29T04:59:36.645Z,12.00
2023-03-29T05:00:36.825Z,16.00
2023-03-29T05:01:37.044Z,16.00
2023-03-29T05:02:38.064Z,16.00
2023-03-29T05:03:37.988Z,20.00
2023-03-29T05:04:37.537Z,20.00
2023-03-29T05:05:39.493Z,28.00
2023-03-29T05:06:39.369Z,32.00
2023-03-29T05:07:38.003Z,36.00
2023-03-29T05:08:40.018Z,40.00
2023-03-29T05:09:38.280Z,44.00
2023-03-29T05:10:38.468Z,52.00
2023-03-29T05:11:39.497Z,56.00
2023-03-29T05:12:38.745Z,64.00
2023-03-29T05:13:38.904Z,80.00
2023-03-29T05:14:39.083Z,92.00
2023-03-29T05:15:41.284Z,100.00
2023-03-29T05:16:40.626Z,104.00
2023-03-29T05:17:40.517Z,108.00
2023-03-29T05:18:40.482Z,112.00
2023-03-29T05:19:39.980Z,116.00
2023-03-29T05:20:40.984Z,128.00
2023-03-29T05:21:40.326Z,136.00
2023-03-29T05:22:40.602Z,144.00
2023-03-29T05:23:41.027Z,148.00
2023-03-29T05:24:40.899Z,152.00
2023-03-29T05:25:42.986Z,160.00
2023-03-29T05:26:42.981Z,156.00
2023-03-29T05:27:41.306Z,172.00
2023-03-29T05:28:42.448Z,184.00
2023-03-29T05:29:42.524Z,212.00
2023-03-29T05:30:42.512Z,220.00
2023-03-29T05:31:41.956Z,224.00
2023-03-29T05:32:42.029Z,220.00
2023-03-29T05:33:42.202Z,224.00
2023-03-29T05:34:42.366Z,220.00
2023-03-29T05:35:44.528Z,236.00
2023-03-29T05:36:42.857Z,260.00
2023-03-29T05:37:42.914Z,264.00
2023-03-29T05:38:43.099Z,264.00
2023-03-29T05:39:43.299Z,260.00
2023-03-29T05:40:43.504Z,252.00
2023-03-29T05:41:43.688Z,228.00
2023-03-29T05:42:44.516Z,220.00
2023-03-29T05:43:44.523Z,212.00
2023-03-29T05:44:44.166Z,204.00
2023-03-29T05:45:45.006Z,216.00
2023-03-29T05:46:44.622Z,220.00
2023-03-29T05:47:45.575Z,228.00
2023-03-29T05:49:05.960Z,236.00
2023-03-29T05:49:46.218Z,240.00
2023-03-29T05:50:46.364Z,252.00
2023-03-29T05:51:47.520Z,240.00
2023-03-29T05:52:46.519Z,232.00
2023-03-29T05:53:46.849Z,228.00
2023-03-29T05:54:46.124Z,220.00
2023-03-29T05:55:47.022Z,216.00
2023-03-29T05:56:47.361Z,216.00
2023-03-29T05:57:47.534Z,212.00
2023-03-29T05:58:46.683Z,252.00
2023-03-29T05:59:48.357Z,268.00
2023-03-29T06:00:46.948Z,276.00
2023-03-29T06:01:47.088Z,292.00
2023-03-29T06:02:47.320Z,300.00
2023-03-29T06:03:47.564Z,304.00
2023-03-29T06:04:48.543Z,308.00
2023-03-29T06:05:49.662Z,340.00
2023-03-29T06:06:48.886Z,396.00
2023-03-29T06:07:49.110Z,428.00
2023-03-29T06:08:48.250Z,444.00
2023-03-29T06:09:48.439Z,460.00
2023-03-29T06:10:50.013Z,456.00
2023-03-29T06:11:49.489Z,484.00
2023-03-29T06:12:49.027Z,504.00
2023-03-29T06:13:49.233Z,536.00
2023-03-29T06:14:49.401Z,600.00
2023-03-29T06:15:51.421Z,660.00
2023-03-29T06:16:49.844Z,696.00
2023-03-29T06:17:51.029Z,644.00
2023-03-29T06:18:50.882Z,588.00
2023-03-29T06:19:50.434Z,624.00
2023-03-29T06:20:50.627Z,608.00
2023-03-29T06:21:50.844Z,624.00
2023-03-29T06:22:51.036Z,628.00
2023-03-29T06:23:51.226Z,680.00
2023-03-29T06:24:51.399Z,836.00
2023-03-29T06:25:52.356Z,996.00
2023-03-29T06:26:51.739Z,1096.00
2023-03-29T06:27:52.503Z,1152.00
2023-03-29T06:28:52.486Z,1124.00
2023-03-29T06:29:53.246Z,1052.00
2023-03-29T06:30:52.412Z,1024.00
2023-03-29T06:31:52.473Z,976.00
2023-03-29T06:32:53.628Z,996.00
2023-03-29T06:33:52.762Z,1076.00
2023-03-29T06:34:52.956Z,1132.00
2023-03-29T06:35:54.028Z,1284.00
2023-03-29T06:36:53.245Z,1536.00
2023-03-29T06:37:53.992Z,1896.00
2023-03-29T06:38:53.516Z,2048.00
2023-03-29T06:39:53.717Z,2128.00
2023-03-29T06:40:53.891Z,2148.00
2023-03-29T06:41:55.033Z,2140.00
2023-03-29T06:42:55.040Z,2148.00
2023-03-29T06:43:54.991Z,2272.00
2023-03-29T06:44:54.638Z,2336.00
2023-03-29T06:45:55.509Z,2448.00
2023-03-29T06:46:55.017Z,2720.00
2023-03-29T06:47:55.271Z,3304.00
2023-03-29T06:48:55.462Z,3672.00
2023-03-29T06:49:55.622Z,3612.00
2023-03-29T06:50:55.753Z,3300.00
2023-03-29T06:51:55.954Z,3112.00
2023-03-29T06:52:56.166Z,2852.00
2023-03-29T06:53:57.041Z,2904.00
2023-03-29T06:54:56.545Z,2752.00
2023-03-29T06:55:56.724Z,2604.00
2023-03-29T06:56:56.930Z,2544.00
2023-03-29T06:58:00.274Z,2532.00
2023-03-29T06:58:57.234Z,2444.00
2023-03-29T06:59:57.394Z,2444.00
2023-03-29T07:00:57.592Z,2344.00
2023-03-29T07:01:57.869Z,2340.00
2023-03-29T07:02:58.033Z,2332.00
2023-03-29T07:03:58.157Z,2384.00
2023-03-29T07:04:58.379Z,2320.00
2023-03-29T07:05:58.565Z,2208.00
2023-03-29T07:06:59.044Z,2252.00
2023-03-29T07:07:59.050Z,2300.00
2023-03-29T07:08:59.106Z,2268.00
2023-03-29T07:09:59.287Z,2308.00
2023-03-29T07:11:00.204Z,2660.00
2023-03-29T07:11:59.652Z,2548.00
2023-03-29T07:12:59.892Z,2492.00
2023-03-29T07:14:00.106Z,2636.00
2023-03-29T07:15:00.305Z,3024.00
2023-03-29T07:16:00.511Z,3064.00
2023-03-29T07:17:00.668Z,3324.00
2023-03-29T07:18:00.929Z,3336.00
2023-03-29T07:19:02.504Z,3464.00
2023-03-29T07:20:01.141Z,3304.00
2023-03-29T07:21:01.520Z,3292.00
2023-03-29T07:22:01.447Z,3608.00
2023-03-29T07:23:02.552Z,4852.00
2023-03-29T07:24:02.551Z,7376.00
2023-03-29T07:25:02.065Z,6268.00
2023-03-29T07:26:02.238Z,8028.00
2023-03-29T07:27:04.901Z,11196.00
2023-03-29T07:28:04.372Z,21152.00
2023-03-29T07:29:02.759Z,20736.00
2023-03-29T07:30:03.094Z,31136.00
2023-03-29T07:31:03.284Z,7488.00
2023-03-29T07:32:03.997Z,7784.00
2023-03-29T07:33:03.563Z,20160.00
2023-03-29T07:34:03.750Z,27392.00
2023-03-29T07:35:03.843Z,16352.00
2023-03-29T07:36:04.050Z,11416.00
2023-03-29T07:37:04.192Z,21568.00
2023-03-29T07:38:04.351Z,35040.00
2023-03-29T07:39:04.464Z,13068.00
2023-03-29T07:40:04.664Z,5172.00
2023-03-29T07:41:04.935Z,4628.00
2023-03-29T07:42:05.499Z,4204.00
2023-03-29T07:43:06.042Z,3776.00
2023-03-29T07:44:05.269Z,3680.00
2023-03-29T07:45:05.412Z,3700.00
2023-03-29T07:46:06.589Z,3660.00
2023-03-29T07:47:05.777Z,3416.00
2023-03-29T07:48:05.983Z,3152.00
2023-03-29T07:49:08.004Z,3092.00
2023-03-29T07:50:06.287Z,3112.00
2023-03-29T07:51:06.452Z,3016.00
2023-03-29T07:52:06.627Z,2904.00
2023-03-29T07:53:07.506Z,2896.00
2023-03-29T07:54:06.993Z,2824.00
2023-03-29T07:55:08.120Z,2736.00
2023-03-29T07:56:08.062Z,2676.00
2023-03-29T07:57:07.570Z,2644.00
2023-03-29T07:58:07.783Z,2764.00
2023-03-29T07:59:07.951Z,2872.00
2023-03-29T08:00:08.088Z,3012.00
2023-03-29T08:01:08.359Z,2948.00
2023-03-29T08:02:08.420Z,2832.00
2023-03-29T08:03:09.600Z,2772.00
2023-03-29T08:04:10.585Z,2836.00
2023-03-29T08:05:09.673Z,2888.00
2023-03-29T08:06:09.090Z,2848.00
2023-03-29T08:07:09.268Z,2820.00
2023-03-29T08:08:09.435Z,2876.00
2023-03-29T08:09:10.375Z,2880.00
2023-03-29T08:10:10.519Z,2948.00
2023-03-29T08:11:09.893Z,3108.00
2023-03-29T08:12:11.777Z,3196.00
2023-03-29T08:13:11.008Z,3280.00
2023-03-29T08:14:10.394Z,3308.00
2023-03-29T08:15:11.381Z,3252.00
2023-03-29T08:16:10.757Z,3296.00
2023-03-29T08:17:11.002Z,3184.00
2023-03-29T08:18:12.108Z,3104.00
2023-03-29T08:19:12.012Z,3340.00
2023-03-29T08:20:11.432Z,3400.00
2023-03-29T08:21:12.512Z,3376.00
2023-03-29T08:22:11.801Z,3304.00
2023-03-29T08:23:12.021Z,3292.00
2023-03-29T08:24:12.185Z,3224.00
2023-03-29T08:25:12.378Z,3224.00
2023-03-29T08:26:12.576Z,3276.00
2023-03-29T08:27:13.516Z,3412.00
2023-03-29T08:28:13.560Z,3512.00
2023-03-29T08:29:13.081Z,3604.00
2023-03-29T08:30:13.282Z,3804.00
2023-03-29T08:31:13.514Z,4136.00
2023-03-29T08:32:14.568Z,4300.00
2023-03-29T08:33:14.609Z,4140.00
2023-03-29T08:34:13.959Z,4108.00
2023-03-29T08:35:14.116Z,4472.00
2023-03-29T08:36:15.047Z,4908.00
2023-03-29T08:37:14.473Z,5008.00
2023-03-29T08:38:16.526Z,5328.00
2023-03-29T08:39:16.240Z,5716.00
2023-03-29T08:40:16.024Z,5952.00
2023-03-29T08:41:15.316Z,6448.00
2023-03-29T08:42:15.470Z,6364.00
2023-03-29T08:43:16.629Z,6064.00
2023-03-29T08:44:16.563Z,5340.00
2023-03-29T08:45:16.570Z,5504.00
2023-03-29T08:46:16.215Z,5820.00
2023-03-29T08:47:18.029Z,5576.00
2023-03-29T08:48:16.397Z,5668.00
2023-03-29T08:49:16.555Z,6000.00
2023-03-29T08:50:17.518Z,6612.00
2023-03-29T08:51:16.921Z,6460.00
2023-03-29T08:52:18.027Z,6848.00
2023-03-29T08:53:17.286Z,10148.00
2023-03-29T08:54:18.064Z,13496.00
2023-03-29T08:55:17.581Z,11192.00
2023-03-29T08:56:18.531Z,9972.00
2023-03-29T08:57:18.030Z,9644.00
2023-03-29T08:58:20.038Z,9348.00
2023-03-29T08:59:19.557Z,8852.00
2023-03-29T09:00:18.549Z,8820.00
2023-03-29T09:01:18.780Z,8624.00
2023-03-29T09:02:19.555Z,8408.00
2023-03-29T09:03:19.167Z,10272.00
2023-03-29T09:04:21.025Z,7832.00
2023-03-29T09:05:20.030Z,7392.00
2023-03-29T09:06:19.594Z,7500.00
2023-03-29T09:07:19.745Z,8544.00
2023-03-29T09:08:20.568Z,10788.00
2023-03-29T09:09:20.082Z,12632.00
2023-03-29T09:10:21.029Z,10224.00
2023-03-29T09:11:20.459Z,9628.00
2023-03-29T09:12:22.034Z,9488.00
2023-03-29T09:13:20.813Z,10396.00
2023-03-29T09:14:21.530Z,7140.00
2023-03-29T09:15:22.040Z,5932.00
2023-03-29T09:16:21.335Z,5196.00
2023-03-29T09:17:21.515Z,4844.00
2023-03-29T09:18:22.575Z,4656.00
2023-03-29T09:19:22.567Z,4864.00
2023-03-29T09:20:22.582Z,4684.00
2023-03-29T09:21:22.075Z,4988.00
2023-03-29T09:22:22.578Z,7300.00
2023-03-29T09:23:22.465Z,8292.00
2023-03-29T09:24:22.626Z,8440.00
2023-03-29T09:25:22.783Z,10780.00
2023-03-29T09:26:23.534Z,9820.00
2023-03-29T09:27:24.558Z,9012.00
2023-03-29T09:28:23.303Z,7956.00
2023-03-29T09:29:24.035Z,8244.00
2023-03-29T09:30:25.038Z,7660.00
2023-03-29T09:31:23.991Z,7784.00
2023-03-29T09:32:25.057Z,7660.00
2023-03-29T09:33:24.187Z,7304.00
2023-03-29T09:34:25.070Z,6224.00
2023-03-29T09:35:24.577Z,4972.00
2023-03-29T09:36:24.765Z,4384.00
2023-03-29T09:37:24.923Z,4104.00
2023-03-29T09:38:25.083Z,3908.00
2023-03-29T09:39:25.229Z,3864.00
2023-03-29T09:40:25.391Z,3948.00
2023-03-29T09:41:25.599Z,4056.00
2023-03-29T09:42:25.773Z,4160.00
2023-03-29T09:43:25.906Z,4248.00
2023-03-29T09:44:31.319Z,4304.00
2023-03-29T09:45:28.410Z,4164.00
2023-03-29T09:46:26.396Z,3988.00
2023-03-29T09:47:26.619Z,3884.00
2023-03-29T09:48:26.792Z,3832.00
2023-03-29T09:49:26.951Z,3876.00
2023-03-29T09:50:31.531Z,4032.00
2023-03-29T09:51:28.282Z,3944.00
2023-03-29T09:52:27.425Z,4172.00
2023-03-29T09:53:27.567Z,4708.00
2023-03-29T09:54:28.583Z,5168.00
2023-03-29T09:55:27.834Z,5208.00
2023-03-29T09:56:28.058Z,5152.00
2023-03-29T09:57:28.297Z,5364.00
2023-03-29T09:58:28.444Z,5684.00
2023-03-29T09:59:29.603Z,5748.00
2023-03-29T10:00:30.117Z,5776.00
2023-03-29T10:01:28.936Z,6032.00
2023-03-29T10:02:29.131Z,6104.00
2023-03-29T10:03:29.305Z,6108.00
2023-03-29T10:04:29.507Z,6196.00
2023-03-29T10:05:31.079Z,6264.00
2023-03-29T10:06:30.550Z,6424.00
2023-03-29T10:07:31.044Z,6264.00
2023-03-29T10:08:30.292Z,5632.00
2023-03-29T10:09:30.436Z,4904.00
2023-03-29T10:10:30.658Z,4140.00
2023-03-29T10:11:30.748Z,3676.00
2023-03-29T10:12:30.930Z,3668.00
2023-03-29T10:13:31.589Z,3972.00
2023-03-29T10:14:31.234Z,4272.00
2023-03-29T10:15:31.448Z,4384.00
2023-03-29T10:16:32.588Z,4496.00
2023-03-29T10:17:31.807Z,4428.00
2023-03-29T10:18:31.984Z,4156.00
2023-03-29T10:19:33.055Z,4024.00
2023-03-29T10:20:32.348Z,4272.00
2023-03-29T10:21:33.563Z,4836.00
2023-03-29T10:22:32.736Z,5112.00
2023-03-29T10:23:33.109Z,5080.00
2023-03-29T10:24:33.172Z,5100.00
2023-03-29T10:25:33.393Z,5200.00
2023-03-29T10:26:33.586Z,5244.00
2023-03-29T10:27:34.111Z,5296.00
2023-03-29T10:28:33.910Z,4788.00
2023-03-29T10:29:34.095Z,4560.00
2023-03-29T10:30:34.291Z,4648.00
2023-03-29T10:31:34.512Z,4936.00
2023-03-29T10:32:34.759Z,5480.00
2023-03-29T10:33:35.566Z,6648.00
2023-03-29T10:34:35.100Z,8424.00
2023-03-29T10:35:35.277Z,8544.00
2023-03-29T10:36:36.055Z,8660.00
2023-03-29T10:37:35.671Z,8336.00
2023-03-29T10:38:36.554Z,8656.00
2023-03-29T10:39:35.961Z,8772.00
2023-03-29T10:40:36.103Z,7664.00
2023-03-29T10:41:36.255Z,6776.00
2023-03-29T10:42:36.392Z,6704.00
2023-03-29T10:43:37.101Z,7096.00
2023-03-29T10:44:36.797Z,7528.00
2023-03-29T10:45:37.613Z,7276.00
2023-03-29T10:46:37.292Z,7040.00
2023-03-29T10:47:38.107Z,7028.00
2023-03-29T10:48:37.527Z,6572.00
2023-03-29T10:49:37.698Z,5868.00
2023-03-29T10:50:37.846Z,5368.00
2023-03-29T10:51:38.020Z,5580.00
2023-03-29T10:52:38.194Z,6828.00
2023-03-29T10:53:38.378Z,7904.00
2023-03-29T10:54:39.102Z,7884.00
2023-03-29T10:55:39.551Z,8100.00
2023-03-29T10:56:39.069Z,8248.00
2023-03-29T10:57:39.229Z,8096.00
2023-03-29T10:58:40.555Z,8144.00
2023-03-29T10:59:39.439Z,8524.00
2023-03-29T11:00:40.611Z,8608.00
2023-03-29T11:01:39.830Z,9528.00
2023-03-29T11:02:40.628Z,9632.00
2023-03-29T11:03:40.255Z,9496.00
2023-03-29T11:04:41.062Z,9136.00
2023-03-29T11:05:42.562Z,9260.00
2023-03-29T11:06:41.556Z,8960.00
2023-03-29T11:07:40.860Z,8816.00
2023-03-29T11:08:41.561Z,8408.00
2023-03-29T11:09:41.210Z,8040.00
2023-03-29T11:10:42.068Z,8112.00
2023-03-29T11:11:44.084Z,8720.00
2023-03-29T11:12:41.858Z,8996.00
2023-03-29T11:13:42.020Z,8636.00
2023-03-29T11:14:42.197Z,8068.00
2023-03-29T11:15:42.437Z,7664.00
2023-03-29T11:16:42.645Z,6880.00
2023-03-29T11:17:43.594Z,5956.00
2023-03-29T11:18:45.064Z,5260.00
2023-03-29T11:19:43.036Z,5032.00
2023-03-29T11:20:44.098Z,4816.00
2023-03-29T11:21:44.064Z,4572.00
2023-03-29T11:22:43.601Z,4492.00
2023-03-29T11:23:43.811Z,4804.00
2023-03-29T11:24:44.020Z,4896.00
2023-03-29T11:25:45.062Z,4936.00
2023-03-29T11:26:45.065Z,5052.00
2023-03-29T11:27:46.062Z,5264.00
2023-03-29T11:28:44.831Z,5736.00
2023-03-29T11:29:45.015Z,7228.00
2023-03-29T11:30:45.191Z,6224.00
2023-03-29T11:31:45.458Z,6108.00
2023-03-29T11:32:45.580Z,6480.00
2023-03-29T11:33:45.640Z,6904.00
2023-03-29T11:34:45.828Z,7248.00
2023-03-29T11:35:46.022Z,7348.00
2023-03-29T11:36:46.207Z,7492.00
2023-03-29T11:37:46.356Z,7504.00
2023-03-29T11:38:48.578Z,8272.00
2023-03-29T11:39:46.728Z,8524.00
2023-03-29T11:40:46.899Z,8348.00
2023-03-29T11:41:47.083Z,8376.00
2023-03-29T11:42:47.252Z,8268.00
2023-03-29T11:43:47.487Z,8072.00
2023-03-29T11:44:47.674Z,7912.00
2023-03-29T11:45:48.129Z,7980.00
2023-03-29T11:46:48.066Z,8480.00
2023-03-29T11:47:48.377Z,8232.00
2023-03-29T11:48:48.424Z,8628.00
2023-03-29T11:49:48.629Z,8256.00
2023-03-29T11:50:48.851Z,8324.00
2023-03-29T11:51:49.026Z,8416.00
2023-03-29T11:52:50.584Z,8444.00
2023-03-29T11:53:49.315Z,8516.00
2023-03-29T11:54:49.480Z,8400.00
2023-03-29T11:55:49.663Z,8276.00
2023-03-29T11:56:49.847Z,8280.00
2023-03-29T11:57:50.041Z,8296.00
2023-03-29T11:58:50.181Z,8300.00
2023-03-29T11:59:50.371Z,8464.00
2023-03-29T12:00:50.540Z,8628.00
2023-03-29T12:01:51.187Z,8772.00
2023-03-29T12:02:50.989Z,8744.00
2023-03-29T12:03:51.235Z,8844.00
2023-03-29T12:04:52.072Z,8788.00
2023-03-29T12:05:51.370Z,9188.00
2023-03-29T12:06:51.570Z,9512.00
2023-03-29T12:07:51.840Z,9556.00
2023-03-29T12:08:54.583Z,8628.00
2023-03-29T12:09:52.062Z,8388.00
2023-03-29T12:10:53.577Z,7936.00
2023-03-29T12:11:52.534Z,7364.00
2023-03-29T12:12:52.642Z,7560.00
2023-03-29T12:13:52.815Z,6888.00
2023-03-29T12:14:52.978Z,7280.00
2023-03-29T12:15:53.130Z,7240.00
2023-03-29T12:16:53.362Z,7208.00
2023-03-29T12:17:53.599Z,7420.00
2023-03-29T12:18:54.623Z,7416.00
2023-03-29T12:19:53.910Z,7344.00
2023-03-29T12:20:56.075Z,7288.00
2023-03-29T12:21:54.369Z,6696.00
2023-03-29T12:22:54.648Z,6344.00
2023-03-29T12:23:55.455Z,6060.00
2023-03-29T12:24:55.662Z,6056.00
2023-03-29T12:25:55.082Z,6268.00
2023-03-29T12:26:56.127Z,6616.00
2023-03-29T12:27:55.638Z,6004.00
2023-03-29T12:28:56.136Z,5596.00
2023-03-29T12:29:55.707Z,5232.00
2023-03-29T12:30:55.962Z,5008.00
2023-03-29T12:31:56.177Z,5200.00
2023-03-29T12:32:56.438Z,5676.00
2023-03-29T12:33:56.453Z,6864.00
2023-03-29T12:34:56.671Z,6064.00
2023-03-29T12:35:58.611Z,5680.00
2023-03-29T12:36:58.603Z,4948.00
2023-03-29T12:37:57.260Z,4812.00